createdAt,value
2023-10-26T00:00:02.866Z,10.39
2023-10-26T00:05:15.325Z,10.47
2023-10-26T00:10:17.681Z,10.52
2023-10-26T00:15:19.760Z,10.66
2023-10-26T00:20:21.845Z,10.67
2023-10-26T00:25:23.686Z,10.53
2023-10-26T00:30:25.689Z,10.43
2023-10-26T00:35:27.561Z,10.58
2023-10-26T00:40:29.586Z,10.49
2023-10-26T00:45:36.680Z,10.61
2023-10-26T00:50:39.850Z,10.50
2023-10-26T00:55:42.635Z,10.68
2023-10-26T01:00:45.809Z,10.64
2023-10-26T01:05:47.774Z,10.64
2023-10-26T01:10:49.629Z,10.69
2023-10-26T01:15:51.670Z,10.75
2023-10-26T01:20:55.399Z,10.86
2023-10-26T01:25:59.601Z,11.34
2023-10-26T01:31:04.275Z,11.05
2023-10-26T01:36:06.231Z,11.00
2023-10-26T01:41:08.197Z,10.99
2023-10-26T01:46:09.875Z,10.86
2023-10-26T01:51:11.985Z,10.99
2023-10-26T01:56:15.399Z,11.17
2023-10-26T02:01:17.491Z,11.06
2023-10-26T02:06:19.477Z,11.02
2023-10-26T02:11:21.276Z,10.97
2023-10-26T02:16:22.947Z,10.82
2023-10-26T02:21:24.666Z,10.77
2023-10-26T02:26:26.394Z,10.69
2023-10-26T02:31:28.145Z,10.87
2023-10-26T02:36:31.122Z,10.78
2023-10-26T02:41:32.889Z,10.89
2023-10-26T02:46:34.560Z,10.97
2023-10-26T02:51:36.274Z,11.07
2023-10-26T02:56:38.039Z,11.22
2023-10-26T03:01:39.796Z,11.25
2023-10-26T03:06:42.122Z,11.34
2023-10-26T03:11:43.923Z,11.44
2023-10-26T03:16:45.669Z,11.47
2023-10-26T03:21:47.983Z,11.55
2023-10-26T03:26:49.772Z,11.47
2023-10-26T03:31:52.653Z,11.60
2023-10-26T03:36:54.398Z,11.57
2023-10-26T03:41:56.336Z,11.55
2023-10-26T03:47:00.017Z,11.62
2023-10-26T03:52:02.369Z,11.50
2023-10-26T03:57:04.738Z,11.56
2023-10-26T04:02:06.673Z,11.39
2023-10-26T04:07:09.119Z,11.34
2023-10-26T04:12:10.987Z,11.27
2023-10-26T04:17:13.565Z,11.28
2023-10-26T04:22:15.299Z,11.22
2023-10-26T04:27:17.028Z,11.27
2023-10-26T04:32:18.852Z,11.27
2023-10-26T04:37:20.717Z,11.28
2023-10-26T04:42:22.602Z,11.26
2023-10-26T04:47:24.958Z,11.22
2023-10-26T04:52:27.381Z,11.25
2023-10-26T04:57:29.094Z,11.19
2023-10-26T05:02:30.840Z,11.24
2023-10-26T05:07:32.659Z,11.29
2023-10-26T05:12:36.965Z,11.26
2023-10-26T05:17:39.419Z,11.25
2023-10-26T05:22:41.202Z,11.22
2023-10-26T05:27:42.979Z,11.23
2023-10-26T05:32:47.659Z,11.26
2023-10-26T05:37:49.496Z,11.20
2023-10-26T05:42:51.647Z,11.13
2023-10-26T05:48:06.689Z,11.17
2023-10-26T05:53:09.835Z,11.16
2023-10-26T05:58:11.524Z,11.18
2023-10-26T06:03:13.267Z,11.15
2023-10-26T06:08:15.138Z,10.98
2023-10-26T06:13:16.826Z,10.99
2023-10-26T06:18:18.694Z,11.14
2023-10-26T06:23:20.494Z,10.94
2023-10-26T06:28:22.169Z,11.07
2023-10-26T06:33:25.219Z,11.28
2023-10-26T06:38:28.981Z,11.21
2023-10-26T06:43:31.087Z,11.27
2023-10-26T06:48:33.074Z,11.37
2023-10-26T06:53:34.956Z,11.38
2023-10-26T06:58:36.609Z,11.44
2023-10-26T07:03:38.401Z,11.51
2023-10-26T07:08:40.090Z,11.55
2023-10-26T07:13:42.016Z,11.57
2023-10-26T07:18:44.686Z,11.59
2023-10-26T07:23:46.340Z,11.56
2023-10-26T07:28:48.081Z,11.60
2023-10-26T07:33:50.277Z,11.59
2023-10-26T07:39:44.726Z,11.60
2023-10-26T07:44:14.072Z,11.60
2023-10-26T07:49:15.782Z,11.69
2023-10-26T07:54:19.002Z,11.70
2023-10-26T07:59:20.821Z,11.69
2023-10-26T08:04:22.604Z,11.72
2023-10-26T08:09:24.296Z,11.71
2023-10-26T08:16:04.225Z,11.91
2023-10-26T08:19:58.392Z,11.92
2023-10-26T08:25:01.084Z,11.90
2023-10-26T08:30:07.092Z,11.96
2023-10-26T08:35:09.014Z,11.90
2023-10-26T08:40:14.110Z,11.88
2023-10-26T08:45:24.711Z,11.99
2023-10-26T08:50:26.585Z,11.71
2023-10-26T08:55:28.388Z,11.96
2023-10-26T09:00:31.755Z,11.95
2023-10-26T09:05:33.528Z,12.04
2023-10-26T09:10:35.429Z,12.02
2023-10-26T09:15:51.400Z,12.16
2023-10-26T09:21:06.273Z,12.33
2023-10-26T09:26:09.547Z,12.35
2023-10-26T09:31:11.337Z,12.52
2023-10-26T09:36:15.057Z,12.58
2023-10-26T09:41:17.916Z,12.76
2023-10-26T09:46:20.731Z,12.78
2023-10-26T09:51:22.562Z,12.71
2023-10-26T09:56:28.770Z,12.74
2023-10-26T10:01:32.743Z,12.72
2023-10-26T10:06:54.616Z,12.86
2023-10-26T10:12:05.829Z,13.09
2023-10-26T10:17:07.768Z,13.18
2023-10-26T10:22:40.241Z,13.30
2023-10-26T10:28:01.991Z,13.34
2023-10-26T10:33:04.574Z,13.40
2023-10-26T10:38:12.179Z,13.23
2023-10-26T10:43:13.931Z,13.46
2023-10-26T10:48:15.596Z,13.61
2023-10-26T10:53:18.011Z,13.85
2023-10-26T10:58:19.736Z,14.04
2023-10-26T11:03:25.070Z,13.75
2023-10-26T11:08:26.973Z,13.66
2023-10-26T11:13:28.725Z,13.74
2023-10-26T11:18:30.568Z,13.75
2023-10-26T11:23:32.371Z,13.54
2023-10-26T11:28:35.480Z,13.58
2023-10-26T11:33:40.910Z,13.58
2023-10-26T11:38:49.758Z,13.58
2023-10-26T11:43:51.885Z,13.49
2023-10-26T11:48:53.680Z,13.40
2023-10-26T11:53:56.695Z,13.41
2023-10-26T11:58:58.374Z,13.38
2023-10-26T12:04:00.184Z,13.44
2023-10-26T12:09:02.037Z,13.44
2023-10-26T12:14:03.761Z,13.26
2023-10-26T12:19:05.563Z,13.26
2023-10-26T12:24:07.481Z,13.25
2023-10-26T12:29:09.194Z,13.36
2023-10-26T12:34:11.030Z,13.20
2023-10-26T12:39:14.257Z,13.22
2023-10-26T12:44:17.288Z,13.12
2023-10-26T12:49:19.156Z,13.12
2023-10-26T12:54:20.918Z,13.00
2023-10-26T12:59:22.642Z,12.96
2023-10-26T13:04:24.590Z,13.12
2023-10-26T13:09:27.028Z,12.87
2023-10-26T13:14:29.129Z,12.99
2023-10-26T13:19:30.779Z,12.90
2023-10-26T13:24:34.028Z,12.79
2023-10-26T13:29:35.885Z,12.81
2023-10-26T13:34:37.742Z,12.88
2023-10-26T13:39:39.413Z,12.86
2023-10-26T13:44:41.374Z,12.85
2023-10-26T13:49:43.363Z,12.80
2023-10-26T13:54:46.600Z,12.71
2023-10-26T13:59:48.606Z,12.56
2023-10-26T14:04:50.658Z,12.70
2023-10-26T14:09:53.286Z,12.71
2023-10-26T14:14:54.963Z,12.76
2023-10-26T14:19:56.625Z,12.71
2023-10-26T14:24:58.689Z,12.76
2023-10-26T14:30:00.401Z,12.78
2023-10-26T14:35:02.056Z,12.55
2023-10-26T14:40:04.821Z,12.75
2023-10-26T14:45:07.055Z,12.75
2023-10-26T14:50:08.888Z,12.58
2023-10-26T14:55:10.611Z,12.59
2023-10-26T15:00:12.834Z,12.63
2023-10-26T15:05:14.516Z,12.52
2023-10-26T15:10:21.705Z,12.37
2023-10-26T15:15:29.800Z,12.25
2023-10-26T15:20:31.834Z,12.33
2023-10-26T15:25:36.936Z,12.18
2023-10-26T15:30:39.729Z,12.15
2023-10-26T15:35:41.433Z,12.05
2023-10-26T15:40:43.067Z,11.89
2023-10-26T15:45:50.740Z,12.29
2023-10-26T15:50:52.434Z,12.12
2023-10-26T15:56:03.008Z,11.78
2023-10-26T16:01:05.354Z,11.64
2023-10-26T16:06:09.923Z,11.49
2023-10-26T16:11:12.936Z,11.54
2023-10-26T16:16:15.056Z,11.33
2023-10-26T16:21:17.237Z,11.24
2023-10-26T16:26:19.171Z,11.25
2023-10-26T16:31:20.979Z,11.19
2023-10-26T16:36:25.532Z,11.16
2023-10-26T16:41:27.272Z,11.06
2023-10-26T16:46:29.033Z,10.94
2023-10-26T16:51:30.791Z,10.85
2023-10-26T16:56:32.567Z,11.04
2023-10-26T17:01:34.235Z,11.11
2023-10-26T17:06:35.919Z,11.10
2023-10-26T17:11:37.666Z,11.08
2023-10-26T17:16:39.643Z,11.01
2023-10-26T17:21:41.420Z,11.04
2023-10-26T17:26:44.258Z,10.82
2023-10-26T17:31:45.989Z,10.76
2023-10-26T17:36:47.844Z,10.74
2023-10-26T17:41:51.490Z,10.61
2023-10-26T17:46:53.356Z,10.63
2023-10-26T17:51:55.267Z,10.53
2023-10-26T17:57:25.487Z,10.47
2023-10-26T18:02:49.358Z,10.33
2023-10-26T18:07:51.041Z,10.20
2023-10-26T18:12:53.627Z,10.15
2023-10-26T18:17:55.455Z,10.23
2023-10-26T18:23:06.521Z,10.15
2023-10-26T18:28:08.891Z,10.27
2023-10-26T18:33:10.618Z,10.31
2023-10-26T18:38:12.313Z,10.30
2023-10-26T18:43:14.672Z,10.41
2023-10-26T18:48:16.297Z,10.23
2023-10-26T18:53:19.603Z,10.38
2023-10-26T18:58:23.125Z,10.34
2023-10-26T19:03:25.088Z,10.27
2023-10-26T19:08:26.883Z,10.13
2023-10-26T19:13:30.470Z,10.34
2023-10-26T19:18:32.776Z,10.34
2023-10-26T19:23:34.472Z,10.54
2023-10-26T19:28:36.201Z,10.70
2023-10-26T19:33:38.564Z,10.40
2023-10-26T19:38:40.283Z,10.23
2023-10-26T19:43:41.945Z,10.18
2023-10-26T19:48:43.726Z,10.16
2023-10-26T19:53:48.365Z,10.43
2023-10-26T19:58:50.148Z,10.39
2023-10-26T20:03:52.050Z,10.44
2023-10-26T20:08:53.898Z,10.41
2023-10-26T20:13:55.592Z,10.30
2023-10-26T20:19:03.294Z,10.12
2023-10-26T20:24:06.260Z,10.25
2023-10-26T20:29:09.004Z,10.24
2023-10-26T20:34:20.168Z,10.04
2023-10-26T20:39:21.964Z,10.00
2023-10-26T20:44:23.638Z,9.88
2023-10-26T20:49:25.281Z,9.81
2023-10-26T20:54:26.973Z,9.86
2023-10-26T20:59:28.604Z,9.73
2023-10-26T21:04:30.296Z,9.63
2023-10-26T21:09:33.311Z,9.54
2023-10-26T21:14:35.083Z,9.50
2023-10-26T21:19:36.831Z,9.36
2023-10-26T21:24:38.626Z,9.22
2023-10-26T21:29:40.485Z,9.21
2023-10-26T21:34:42.183Z,9.47
2023-10-26T21:39:44.052Z,8.98
2023-10-26T21:44:45.824Z,8.87
2023-10-26T21:49:47.496Z,9.16
2023-10-26T21:54:49.485Z,8.86
2023-10-26T21:59:51.287Z,8.98
2023-10-26T22:04:53.029Z,8.77
2023-10-26T22:09:55.738Z,8.69
2023-10-26T22:14:58.047Z,8.88
2023-10-26T22:20:00.621Z,9.33
2023-10-26T22:25:03.057Z,9.05
2023-10-26T22:30:06.970Z,8.91
2023-10-26T22:35:09.143Z,8.85
2023-10-26T22:40:11.470Z,8.80
2023-10-26T22:45:14.284Z,8.90
2023-10-26T22:50:15.989Z,8.80
2023-10-26T22:55:18.035Z,8.82
2023-10-26T23:00:20.074Z,8.87
2023-10-26T23:05:21.883Z,9.30
2023-10-26T23:10:23.764Z,8.92
2023-10-26T23:15:25.513Z,9.20
2023-10-26T23:20:27.544Z,9.22
2023-10-26T23:25:29.304Z,9.10
2023-10-26T23:30:31.046Z,8.99
2023-10-26T23:35:38.135Z,8.95
2023-10-26T23:40:39.855Z,9.32
2023-10-26T23:45:41.605Z,9.11
2023-10-26T23:50:43.308Z,8.93
2023-10-26T23:55:45.125Z,8.76
